Time;durP1;ratioP1;P1;durP2;ratioP2;P2;SDS_P1;SDS_P2;PMS_P1;PMS_P2;Temp;Humidity;BMP_temperature;BMP_pressure;BME280_temperature;BME280_humidity;BME280_pressure;Samples;Min_cycle;Max_cycle;Signal;HPM_P1;HPM_P2
2022/06/17 14:57:16;;;;;;;6.93;2.92;;;29.10;59.30;;;;;;5108367;27;1516943;-81
2022/06/17 15:00:12;;;;;;;8.88;3.10;;;29.00;60.90;;;;;;5084649;28;20049;-83
2022/06/17 15:02:59;;;;;;;7.28;2.83;;;28.70;61.90;;;;;;5085289;28;20036;-81
2022/06/17 15:05:45;;;;;;;5.90;2.85;;;28.70;62.20;;;;;;5086268;28;20048;-84
2022/06/17 15:08:39;;;;;;;5.28;2.58;;;28.60;62.30;;;;;;5084133;28;20498;-84
2022/06/17 15:11:29;;;;;;;5.38;2.53;;;28.50;62.40;;;;;;5053622;28;20458;-82
2022/06/17 15:14:18;;;;;;;10.15;3.83;;;28.40;62.70;;;;;;5066437;28;20136;-82
2022/06/17 15:17:16;;;;;;;6.57;2.90;;;28.30;62.60;;;;;;5068649;28;20519;-83
2022/06/17 15:20:07;;;;;;;6.95;2.85;;;28.20;63.10;;;;;;5068216;28;20456;-82
2022/06/17 15:23:26;;;;;;;5.90;2.92;;;28.20;63.50;;;;;;5067813;28;20488;-83
2022/06/17 15:26:19;;;;;;;6.03;2.67;;;28.10;62.90;;;;;;5052653;28;20045;-84
2022/06/17 15:29:14;;;;;;;4.93;2.33;;;27.90;64.80;;;;;;5068415;28;20109;-86
2022/06/17 15:32:16;;;;;;;6.97;2.90;;;28.10;64.40;;;;;;5071835;28;20056;-80
2022/06/17 15:35:09;;;;;;;8.02;2.72;;;28.20;65.80;;;;;;5037290;28;20048;-81
2022/06/17 15:38:20;;;;;;;6.90;2.65;;;28.30;66.20;;;;;;5052849;28;20049;-82
2022/06/17 15:41:27;;;;;;;6.20;3.05;;;28.40;66.00;;;;;;5067089;28;20074;-80
2022/06/17 15:44:18;;;;;;;9.80;2.92;;;28.30;65.80;;;;;;5066717;28;20051;-81
2022/06/17 15:47:10;;;;;;;5.40;2.75;;;28.40;68.30;;;;;;5068754;28;20049;-80
2022/06/17 15:49:59;;;;;;;6.97;3.10;;;28.50;68.40;;;;;;5065839;28;20060;-81
2022/06/17 15:52:45;;;;;;;4.70;2.63;;;28.40;68.20;;;;;;5052712;28;20048;-81
2022/06/17 15:55:38;;;;;;;6.25;3.00;;;28.40;69.90;;;;;;5066963;28;20486;-81
2022/06/17 15:58:31;;;;;;;5.35;2.67;;;28.40;68.20;;;;;;5067336;28;20052;-80
2022/06/17 16:01:32;;;;;;;6.03;2.78;;;28.40;68.60;;;;;;5067010;28;20492;-80
2022/06/17 16:04:29;;;;;;;6.90;3.25;;;28.20;66.90;;;;;;5066170;28;20053;-80
2022/06/17 16:07:15;;;;;;;6.20;2.70;;;28.20;65.40;;;;;;5045183;28;20400;-80
2022/06/17 16:10:03;;;;;;;8.90;2.78;;;28.10;66.70;;;;;;5053968;28;20048;-80
2022/06/17 16:13:04;;;;;;;5.85;2.40;;;28.10;66.50;;;;;;5054301;28;20045;-81
2022/06/17 16:16:17;;;;;;;6.40;2.55;;;28.00;66.80;;;;;;5054482;28;20056;-82
2022/06/17 16:19:06;;;;;;;5.47;2.13;;;28.00;67.00;;;;;;5035585;28;20563;-81
2022/06/17 16:21:58;;;;;;;7.00;2.67;;;28.00;67.70;;;;;;5052392;28;20508;-80
2022/06/17 16:25:02;;;;;;;8.13;3.00;;;28.00;68.80;;;;;;5053421;28;20443;-81
2022/06/17 16:27:55;;;;;;;5.17;2.60;;;28.00;68.80;;;;;;5054656;28;20140;-82
2022/06/17 16:30:54;;;;;;;6.22;2.35;;;27.90;68.60;;;;;;5039541;28;20462;-81
2022/06/17 16:33:40;;;;;;;5.78;2.28;;;28.10;69.50;;;;;;5052931;28;20060;-81
2022/06/17 16:36:35;;;;;;;4.90;2.83;;;28.30;70.00;;;;;;5033895;28;20060;-80
2022/06/17 16:39:35;;;;;;;4.80;2.50;;;28.30;69.60;;;;;;5036796;28;20049;-82
2022/06/17 16:45:31;;;;;;;6.47;2.80;;;27.90;69.10;;;;;;5035983;28;20126;-80
2022/06/17 16:48:17;;;;;;;5.10;2.45;;;27.80;69.60;;;;;;5052908;28;20399;-81
2022/06/17 16:51:05;;;;;;;5.35;2.40;;;27.90;71.20;;;;;;5052458;28;20239;-81
2022/06/17 16:53:51;;;;;;;7.78;2.95;;;27.80;72.50;;;;;;5034527;28;20523;-80
2022/06/17 16:56:47;;;;;;;6.38;2.67;;;27.90;73.40;;;;;;5037366;28;20057;-81
2022/06/17 16:59:33;;;;;;;7.80;3.38;;;28.00;74.40;;;;;;5053240;28;20057;-81
2022/06/17 17:02:20;;;;;;;7.90;2.78;;;27.70;74.70;;;;;;5020151;28;20052;-81
2022/06/17 17:05:07;;;;;;;4.57;2.25;;;27.70;73.30;;;;;;5035341;28;20499;-79
2022/06/17 17:07:54;;;;;;;5.82;2.33;;;27.70;74.20;;;;;;5051456;28;20570;-80
2022/06/17 17:10:42;;;;;;;4.97;2.25;;;27.60;76.10;;;;;;5053234;28;20079;-81
2022/06/17 17:13:29;;;;;;;8.10;1.90;;;27.50;75.20;;;;;;5052478;28;20048;-81
2022/06/17 17:16:16;;;;;;;9.05;2.40;;;27.50;74.90;;;;;;5053457;28;20053;-83
2022/06/17 17:19:03;;;;;;;4.85;2.03;;;27.30;73.60;;;;;;5052544;28;20049;-81
2022/06/17 17:21:53;;;;;;;5.90;2.40;;;27.20;74.50;;;;;;5052797;28;20088;-81
2022/06/17 17:24:41;;;;;;;5.90;2.20;;;27.00;73.30;;;;;;5052348;28;20504;-82
2022/06/17 17:27:29;;;;;;;6.88;2.30;;;27.00;74.80;;;;;;5052221;28;20085;-80
2022/06/17 17:30:16;;;;;;;4.22;2.38;;;26.90;76.50;;;;;;5034772;28;20139;-81
2022/06/17 17:33:04;;;;;;;5.18;2.50;;;27.00;77.10;;;;;;5052653;28;20037;-81
2022/06/17 17:35:51;;;;;;;5.47;2.88;;;26.90;78.90;;;;;;5035218;28;20057;-82
2022/06/17 17:38:38;;;;;;;6.55;2.50;;;26.80;81.30;;;;;;5036072;28;20103;-80
2022/06/17 17:41:29;;;;;;;4.25;2.22;;;26.80;80.60;;;;;;5051844;28;20099;-81
2022/06/17 17:44:23;;;;;;;6.35;3.00;;;26.80;81.50;;;;;;5051467;28;20051;-82
2022/06/17 17:47:16;;;;;;;5.03;2.60;;;26.80;82.50;;;;;;5033929;28;20060;-80
2022/06/17 17:50:04;;;;;;;6.78;2.20;;;26.90;84.10;;;;;;5019995;28;20496;-79
2022/06/17 17:52:51;;;;;;;6.68;2.42;;;26.80;84.70;;;;;;5051612;28;20045;-81
2022/06/17 17:55:38;;;;;;;6.32;2.97;;;26.80;85.80;;;;;;5051417;28;20060;-81
2022/06/17 17:58:24;;;;;;;5.88;2.33;;;26.90;87.80;;;;;;5033305;28;20135;-80
2022/06/17 18:01:23;;;;;;;6.28;2.25;;;26.90;89.30;;;;;;5051636;28;20103;-81
2022/06/17 18:04:14;;;;;;;6.97;2.35;;;26.90;89.70;;;;;;5052593;28;20037;-81
2022/06/17 18:07:00;;;;;;;7.40;2.22;;;26.80;88.60;;;;;;5051220;28;20160;-81
2022/06/17 18:09:48;;;;;;;8.52;2.35;;;26.80;87.90;;;;;;5051294;28;20052;-81
2022/06/17 18:12:34;;;;;;;5.00;2.00;;;26.70;88.60;;;;;;5032469;28;20056;-82
2022/06/17 18:15:23;;;;;;;5.43;2.20;;;26.60;88.80;;;;;;5051340;28;20048;-83
2022/06/17 18:18:14;;;;;;;4.30;2.20;;;26.50;90.30;;;;;;5051358;28;20059;-81
2022/06/17 18:21:00;;;;;;;5.32;1.98;;;26.40;90.80;;;;;;5019438;28;20048;-82
2022/06/17 18:23:48;;;;;;;4.70;2.20;;;26.40;91.10;;;;;;5032163;28;20048;-81
2022/06/17 18:26:43;;;;;;;8.93;2.20;;;26.30;91.30;;;;;;5050724;28;20053;-80
2022/06/17 18:29:33;;;;;;;5.55;2.42;;;26.20;91.70;;;;;;5036642;28;20052;-81
2022/06/17 18:32:21;;;;;;;9.45;2.67;;;26.10;91.50;;;;;;5033975;28;20051;-81
2022/06/17 18:35:16;;;;;;;5.15;1.98;;;26.00;91.80;;;;;;5019172;28;20056;-81
2022/06/17 18:38:02;;;;;;;4.60;2.15;;;25.90;92.30;;;;;;5033632;28;20045;-79
2022/06/17 18:40:49;;;;;;;4.65;2.03;;;25.90;92.80;;;;;;5033399;28;20075;-82
2022/06/17 18:43:35;;;;;;;4.82;2.30;;;25.90;93.10;;;;;;5020419;28;20049;-82
2022/06/17 18:46:22;;;;;;;4.75;2.20;;;25.90;93.60;;;;;;5051908;28;20083;-82
2022/06/17 18:49:15;;;;;;;4.07;1.92;;;25.80;93.90;;;;;;5051150;28;20403;-82
2022/06/17 18:52:09;;;;;;;4.47;2.25;;;25.80;94.10;;;;;;5051259;28;20052;-83
2022/06/17 18:54:59;;;;;;;4.93;1.98;;;25.70;94.10;;;;;;5051113;28;20064;-81
2022/06/17 18:57:45;;;;;;;5.88;2.78;;;25.60;94.70;;;;;;5051440;28;20071;-81
2022/06/17 19:00:32;;;;;;;5.32;2.78;;;25.50;95.00;;;;;;5050739;28;20551;-81
2022/06/17 19:03:31;;;;;;;5.22;2.33;;;25.50;95.30;;;;;;5032297;28;20103;-81
2022/06/17 19:06:20;;;;;;;6.47;2.00;;;25.40;95.20;;;;;;5050296;28;20053;-81
2022/06/17 19:18:28;;;;;;;4.88;2.58;;;25.00;96.20;;;;;;5051268;28;20041;-81
2022/06/17 19:21:16;;;;;;;7.30;2.63;;;24.80;96.30;;;;;;5050455;28;20056;-82
2022/06/17 19:24:03;;;;;;;5.28;2.50;;;24.70;96.50;;;;;;5050304;28;20447;-85
2022/06/17 19:26:49;;;;;;;6.28;2.30;;;24.60;96.60;;;;;;5031255;28;20055;-83
2022/06/17 19:29:38;;;;;;;7.43;2.55;;;24.50;96.90;;;;;;5032441;28;20049;-82
2022/06/17 19:32:37;;;;;;;4.43;2.17;;;24.40;97.00;;;;;;5049434;28;20091;-82
2022/06/17 19:35:41;;;;;;;8.93;3.08;;;24.30;97.30;;;;;;5032978;28;20049;-82
2022/06/17 19:38:38;;;;;;;4.55;2.47;;;24.30;97.60;;;;;;5050562;28;20060;-82
2022/06/17 19:41:42;;;;;;;4.60;2.17;;;24.10;97.60;;;;;;5020495;28;20080;-80
2022/06/17 19:44:31;;;;;;;5.47;2.50;;;24.00;97.70;;;;;;5035382;28;20488;-82
2022/06/17 19:47:21;;;;;;;6.82;2.72;;;23.90;97.80;;;;;;5040387;28;20602;-80
2022/06/17 19:50:21;;;;;;;5.78;2.60;;;23.80;98.40;;;;;;5037405;28;20049;-81
2022/06/17 19:53:13;;;;;;;4.88;2.40;;;23.70;99.30;;;;;;5035799;28;20148;-83
2022/06/17 19:55:59;;;;;;;7.70;2.65;;;23.60;99.50;;;;;;5053184;28;20064;-83
2022/06/17 19:58:45;;;;;;;3.95;2.40;;;23.50;99.60;;;;;;5053167;28;20497;-82
2022/06/17 20:01:56;;;;;;;5.55;2.50;;;23.50;99.90;;;;;;5054636;28;20532;-79
2022/06/17 20:04:42;;;;;;;5.75;2.80;;;23.40;99.90;;;;;;5054491;28;20408;-82
2022/06/17 20:07:28;;;;;;;5.95;2.58;;;23.30;99.90;;;;;;5053630;28;20060;-82
2022/06/17 20:10:17;;;;;;;5.90;2.60;;;23.20;99.90;;;;;;5051468;28;20140;-82
2022/06/17 20:13:05;;;;;;;11.93;2.90;;;23.20;99.90;;;;;;5053426;28;20045;-82
2022/06/17 20:15:54;;;;;;;9.82;2.78;;;23.10;99.90;;;;;;5053519;28;20416;-81
2022/06/17 20:18:40;;;;;;;4.70;2.90;;;23.00;99.90;;;;;;5035523;28;20511;-81
2022/06/17 20:21:26;;;;;;;6.10;3.03;;;22.90;99.90;;;;;;5034723;28;20059;-81
2022/06/17 20:24:14;;;;;;;8.98;2.60;;;22.80;99.90;;;;;;5053117;28;20122;-81
2022/06/17 20:27:02;;;;;;;7.13;3.03;;;22.70;99.90;;;;;;5036981;28;20049;-81
2022/06/17 20:29:48;;;;;;;4.78;2.63;;;22.70;99.90;;;;;;5053430;28;20586;-81
2022/06/17 20:32:34;;;;;;;11.38;3.38;;;22.60;99.90;;;;;;5039302;28;20060;-82
2022/06/17 20:35:20;;;;;;;6.53;3.35;;;22.50;99.90;;;;;;5034724;28;20053;-83
2022/06/17 20:38:07;;;;;;;6.85;2.60;;;22.50;99.90;;;;;;5035170;28;20459;-83
2022/06/17 20:40:53;;;;;;;5.97;2.50;;;22.40;99.90;;;;;;5034882;28;20088;-83
2022/06/17 20:43:45;;;;;;;4.88;2.50;;;22.40;99.90;;;;;;5039473;28;20045;-82
2022/06/17 20:52:42;;;;;;;7.97;3.00;;;22.30;99.90;;;;;;5035334;28;20144;-82
2022/06/17 20:55:37;;;;;;;5.63;2.85;;;22.30;99.90;;;;;;5035565;28;20057;-83
2022/06/17 20:58:29;;;;;;;5.80;2.75;;;22.20;99.90;;;;;;5032751;28;20052;-82
2022/06/17 21:01:19;;;;;;;10.00;3.13;;;22.10;99.90;;;;;;5017949;28;20057;-83
2022/06/17 21:04:05;;;;;;;9.43;3.30;;;22.10;99.90;;;;;;5033269;28;20104;-83
2022/06/17 21:06:52;;;;;;;4.07;2.47;;;22.10;99.90;;;;;;5015295;28;20492;-84
2022/06/17 21:09:38;;;;;;;6.28;3.00;;;22.00;99.90;;;;;;5024855;28;20385;-82
2022/06/17 21:12:24;;;;;;;6.90;3.33;;;21.90;99.90;;;;;;5014716;28;20050;-82
2022/06/17 21:15:18;;;;;;;5.50;2.88;;;21.90;99.90;;;;;;5014800;28;20050;-82
2022/06/17 21:18:05;;;;;;;5.47;2.97;;;21.80;99.90;;;;;;5031789;28;20056;-82
2022/06/17 21:20:53;;;;;;;7.72;3.05;;;21.80;99.90;;;;;;5030126;28;20060;-81
2022/06/17 21:23:39;;;;;;;6.00;3.00;;;21.70;99.90;;;;;;5031991;28;20056;-84
2022/06/17 21:26:28;;;;;;;5.72;2.97;;;21.60;99.90;;;;;;5014555;28;20041;-82
2022/06/17 21:29:15;;;;;;;5.32;2.75;;;21.60;99.90;;;;;;5031514;28;20485;-80
2022/06/17 21:32:01;;;;;;;5.78;3.40;;;21.50;99.90;;;;;;5000478;28;20056;-81
2022/06/17 21:34:47;;;;;;;8.40;3.60;;;21.50;99.90;;;;;;5031570;28;20054;-81
2022/06/17 21:37:34;;;;;;;8.75;3.90;;;21.40;99.90;;;;;;5018434;28;20604;-81
2022/06/17 21:40:26;;;;;;;9.35;4.13;;;21.40;99.90;;;;;;5018985;28;20456;-80
2022/06/17 21:43:20;;;;;;;6.57;3.35;;;21.40;99.90;;;;;;5032178;28;20471;-82
2022/06/17 21:46:20;;;;;;;5.82;3.22;;;21.40;99.90;;;;;;5014421;28;20449;-82
2022/06/17 21:49:07;;;;;;;5.80;3.63;;;21.40;99.90;;;;;;5031772;28;20505;-81
2022/06/17 21:51:57;;;;;;;8.80;3.60;;;21.30;99.90;;;;;;5032902;28;20049;-83
2022/06/17 21:54:43;;;;;;;7.97;4.28;;;21.20;99.90;;;;;;5031536;28;20053;-83
2022/06/17 21:57:31;;;;;;;7.22;3.53;;;21.20;99.90;;;;;;5052010;28;20808;-82
2022/06/17 22:00:25;;;;;;;6.80;3.85;;;21.20;99.90;;;;;;5051530;28;20049;-82
2022/06/17 22:03:17;;;;;;;6.77;3.87;;;21.10;99.90;;;;;;5052401;28;20056;-80
2022/06/17 22:06:05;;;;;;;9.23;3.25;;;21.10;99.90;;;;;;5032698;28;20057;-82
2022/06/17 22:08:53;;;;;;;7.53;4.07;;;21.00;99.90;;;;;;5051031;28;20049;-82
2022/06/17 22:14:44;;;;;;;7.87;4.20;;;20.90;99.90;;;;;;5051647;28;20051;-82
2022/06/17 22:17:31;;;;;;;8.65;4.55;;;20.90;99.90;;;;;;5021615;28;20052;-81
2022/06/17 22:20:19;;;;;;;7.82;4.30;;;20.80;99.90;;;;;;5051231;28;20053;-80
2022/06/17 22:23:26;;;;;;;7.97;4.18;;;20.80;99.90;;;;;;5033834;28;20048;-82
2022/06/17 22:26:13;;;;;;;7.53;4.07;;;20.80;99.90;;;;;;5014818;28;20087;-82
2022/06/17 22:28:59;;;;;;;10.63;4.63;;;20.80;99.90;;;;;;5051045;28;20135;-82
2022/06/17 22:31:45;;;;;;;7.88;3.83;;;20.80;99.90;;;;;;5050407;28;20060;-83
2022/06/17 22:34:32;;;;;;;8.27;4.43;;;20.80;99.90;;;;;;5050814;28;20060;-83
2022/06/17 22:37:20;;;;;;;7.20;3.75;;;20.80;99.90;;;;;;5036211;28;20516;-82
2022/06/17 22:40:12;;;;;;;7.60;4.10;;;20.80;99.90;;;;;;5051014;28;20134;-82
2022/06/17 22:42:59;;;;;;;6.85;3.60;;;20.90;99.90;;;;;;5032842;28;20049;-83
2022/06/17 22:45:52;;;;;;;7.03;4.35;;;20.90;99.90;;;;;;5051231;28;20061;-82
2022/06/17 22:48:44;;;;;;;9.88;4.32;;;21.00;99.90;;;;;;5032439;28;20088;-83
2022/06/17 22:51:33;;;;;;;7.50;4.63;;;20.90;99.90;;;;;;5050676;28;20049;-83
2022/06/17 22:54:24;;;;;;;8.85;4.32;;;20.80;99.90;;;;;;5050366;28;20056;-82
2022/06/17 22:57:17;;;;;;;8.70;4.68;;;20.90;99.90;;;;;;5032963;28;20056;-83
2022/06/17 23:00:05;;;;;;;8.07;4.45;;;20.80;99.90;;;;;;5050350;28;20053;-84
2022/06/17 23:06:04;;;;;;;8.52;4.72;;;20.70;99.90;;;;;;5034174;28;20088;-83
2022/06/17 23:08:50;;;;;;;10.40;4.60;;;20.70;99.90;;;;;;5051290;28;20500;-83
2022/06/17 23:11:36;;;;;;;7.60;4.85;;;20.60;99.90;;;;;;5038449;28;20088;-82
2022/06/17 23:14:23;;;;;;;7.53;4.30;;;20.70;99.90;;;;;;5053754;28;20049;-82
2022/06/17 23:17:28;;;;;;;7.88;4.25;;;20.60;99.90;;;;;;5054880;28;20047;-82
2022/06/17 23:20:15;;;;;;;9.52;4.43;;;20.60;99.90;;;;;;5055676;28;20090;-83
2022/06/17 23:23:02;;;;;;;13.00;4.32;;;20.70;99.90;;;;;;5037634;28;20056;-81
2022/06/17 23:25:48;;;;;;;12.73;4.85;;;20.60;99.90;;;;;;5036604;28;20053;-82
2022/06/17 23:28:34;;;;;;;7.63;4.18;;;20.60;99.90;;;;;;5036994;28;20266;-82
2022/06/17 23:31:30;;;;;;;8.30;4.60;;;20.60;99.90;;;;;;5054798;28;20064;-83
2022/06/17 23:34:18;;;;;;;8.75;4.00;;;20.60;99.90;;;;;;5037038;28;20412;-82
2022/06/17 23:37:08;;;;;;;8.85;4.97;;;20.60;99.90;;;;;;5053813;28;20052;-83
2022/06/17 23:39:54;;;;;;;8.18;4.10;;;20.60;99.90;;;;;;5053452;28;20076;-82
2022/06/17 23:42:42;;;;;;;6.55;4.18;;;20.60;99.90;;;;;;5054939;28;20045;-83
2022/06/17 23:45:28;;;;;;;7.68;3.95;;;20.60;99.90;;;;;;5053940;28;20075;-83
2022/06/17 23:48:18;;;;;;;8.13;4.47;;;20.70;99.90;;;;;;5039794;28;20057;-83
2022/06/17 23:51:05;;;;;;;12.07;5.03;;;20.60;99.90;;;;;;5021764;28;20037;-82
2022/06/17 23:53:52;;;;;;;8.80;4.85;;;20.60;99.90;;;;;;5035576;28;20045;-82
2022/06/17 23:56:39;;;;;;;9.43;5.47;;;20.50;99.90;;;;;;5038202;28;20065;-82
2022/06/17 23:59:26;;;;;;;7.82;4.88;;;20.50;99.90;;;;;;5036304;28;20546;-81
